Terminal Aerodrome Forecast
Issued by NWS

Home | Current Version | Previous Version | Text Only | Print | Product List | Glossary On
Versions: 1 2 3 4 5 6 7 8 9 10 11 12 13 14 15 16 17 18 19 20 21 22
875
FTUS43 KDVN 241108 AAC
TAFBRL
TAF AMD
KBRL 241108Z 2411/2506 18006KT P6SM VCSH SCT010 BKN100
      TEMPO 2411/2413 5SM -RA BR SCT010 BKN025
     FM241300 18009KT 6SM HZ BKN012 OVC025
     FM241900 20007KT P6SM VCTS SCT025CB BKN035=

USA.gov is the U.S. government's official web portal to all federal, state and local government web resources and services.